Accueil
METAR-TAF:

METAR-TAF

Aéroports :

Aéroport de Reus

Reus, Espagne

latitude: 41-09N, longitude: 001-10E, altitude: 71 m

Observation

Le bulletin a été fait il y a 56 minutes, à 02:30 UTC
Vent 3 kt de nord, variant entre nord/nord-ouest et nord-est
Température 23°C
Humidité 83%
Pression 1020 hPa
Visibilité 10 km ou plus
orage à proximité

METAR: LERS 060230Z AUTO 01003KT 340V050 9999 VCTS ///CB 23/20 Q1020 RETS

Heure: 05:26 (03:26 UTC)

Prévision

Le bulletin a été fait il y a 1 heure et 26 minutes, à 02:00 UTC
Prévision valable du 06 à 03 UTC au 07 à 03 UTC
Vent 5 kt de direction variable
Visibilité 10 km ou plus
Quelques nuages à une hauteur de 2000 ft
Probabilité 40% :
Temporairement
du 06 à 03 UTC au 06 à 17 UTC
Visibilité: 4000 m
Nuages épars à une hauteur de 4000 ft, Cumulonimbus.
orage, pluie

TAF: LERS 060200Z 0603/0703 VRB05KT 9999 FEW020 TX31/0612Z TN21/0605Z PROB40 TEMPO 0603/0617 4000 TSRA SCT040CB

Observations et prévisions météorologiques de plus de 4000 aéroports (messages METAR et TAF).

Les stations disponibles sont représentées par des disques jaunes et rouges sur la carte.

Passer la souris dessus pour voir le nom de la station.

Cliquer dessus pour voir les observations et prévisions météorologiques.

Pour changer de carte: cliquez sur les boutons verts avec une croix noire pour zoomer, sur le bouton vert avec un tiret pour effectuer un zoom arrière, ou sur les flèches vertes pour les cartes adjacentes.


METAR-TAF: